sensor_id;sensor_type;location;lat;lon;timestamp;pressure;altitude;pressure_sealevel;temperature;humidity
48027;BME280;50714;49.208;5.364;2023-05-21T00:09:00;99281.78;;;17.09;55.89
48027;BME280;50714;49.208;5.364;2023-05-21T00:19:00;99267.50;;;17.02;56.18
48027;BME280;50714;49.208;5.364;2023-05-21T00:29:01;99256.34;;;17.03;56.28
48027;BME280;50714;49.208;5.364;2023-05-21T00:39:01;99249.19;;;16.97;56.44
48027;BME280;50714;49.208;5.364;2023-05-21T00:49:03;99245.66;;;16.97;56.57
48027;BME280;50714;49.208;5.364;2023-05-21T00:59:04;99239.13;;;16.98;56.56
48027;BME280;50714;49.208;5.364;2023-05-21T01:09:05;99214.69;;;16.86;56.79
48027;BME280;50714;49.208;5.364;2023-05-21T01:19:07;99207.94;;;16.72;57.02
48027;BME280;50714;49.208;5.364;2023-05-21T01:29:09;99215.91;;;16.62;57.35
48027;BME280;50714;49.208;5.364;2023-05-21T01:39:17;99217.72;;;16.56;58.15
48027;BME280;50714;49.208;5.364;2023-05-21T01:49:20;99226.47;;;16.58;57.81
48027;BME280;50714;49.208;5.364;2023-05-21T01:59:21;99216.03;;;16.50;58.17
48027;BME280;50714;49.208;5.364;2023-05-21T02:09:22;99212.63;;;16.43;58.36
48027;BME280;50714;49.208;5.364;2023-05-21T02:19:22;99205.19;;;16.38;58.51
48027;BME280;50714;49.208;5.364;2023-05-21T02:29:23;99196.63;;;16.30;58.61
48027;BME280;50714;49.208;5.364;2023-05-21T02:39:23;99208.91;;;16.16;59.34
48027;BME280;50714;49.208;5.364;2023-05-21T02:49:24;99206.69;;;16.13;59.40
48027;BME280;50714;49.208;5.364;2023-05-21T02:59:24;99188.13;;;16.10;59.92
48027;BME280;50714;49.208;5.364;2023-05-21T03:09:25;99189.19;;;16.09;60.13
48027;BME280;50714;49.208;5.364;2023-05-21T03:19:25;99191.31;;;16.07;60.12
48027;BME280;50714;49.208;5.364;2023-05-21T03:29:26;99197.78;;;16.00;60.19
48027;BME280;50714;49.208;5.364;2023-05-21T03:39:27;99184.94;;;15.84;60.60
48027;BME280;50714;49.208;5.364;2023-05-21T03:49:27;99187.59;;;15.79;60.85
48027;BME280;50714;49.208;5.364;2023-05-21T03:59:27;99178.41;;;15.68;61.19
48027;BME280;50714;49.208;5.364;2023-05-21T04:09:28;99187.06;;;15.65;61.34
48027;BME280;50714;49.208;5.364;2023-05-21T04:19:28;99181.28;;;15.62;61.64
48027;BME280;50714;49.208;5.364;2023-05-21T04:29:29;99192.34;;;15.72;61.64
48027;BME280;50714;49.208;5.364;2023-05-21T04:39:29;99198.16;;;15.76;61.72
48027;BME280;50714;49.208;5.364;2023-05-21T04:49:30;99199.94;;;15.70;62.21
48027;BME280;50714;49.208;5.364;2023-05-21T04:59:31;99196.28;;;15.64;62.50
48027;BME280;50714;49.208;5.364;2023-05-21T05:09:31;99185.06;;;15.61;63.07
48027;BME280;50714;49.208;5.364;2023-05-21T05:19:31;99193.63;;;15.81;63.41
48027;BME280;50714;49.208;5.364;2023-05-21T05:29:34;99191.06;;;16.08;63.11
48027;BME280;50714;49.208;5.364;2023-05-21T05:39:34;99194.41;;;16.44;63.34
48027;BME280;50714;49.208;5.364;2023-05-21T05:49:35;99186.47;;;16.76;63.30
48027;BME280;50714;49.208;5.364;2023-05-21T05:59:35;99191.06;;;17.14;63.51
48027;BME280;50714;49.208;5.364;2023-05-21T06:09:36;99191.13;;;17.41;63.57
48027;BME280;50714;49.208;5.364;2023-05-21T06:19:38;99197.59;;;17.83;63.67
48027;BME280;50714;49.208;5.364;2023-05-21T06:29:38;99207.81;;;18.25;62.77
48027;BME280;50714;49.208;5.364;2023-05-21T06:39:39;99207.31;;;18.60;62.11
48027;BME280;50714;49.208;5.364;2023-05-21T06:49:40;99206.38;;;18.81;60.90
48027;BME280;50714;49.208;5.364;2023-05-21T06:59:40;99206.66;;;18.85;60.77
48027;BME280;50714;49.208;5.364;2023-05-21T07:09:40;99220.06;;;19.43;61.42
48027;BME280;50714;49.208;5.364;2023-05-21T07:19:41;99219.22;;;20.31;59.76
48027;BME280;50714;49.208;5.364;2023-05-21T07:29:41;99213.69;;;20.92;59.26
48027;BME280;50714;49.208;5.364;2023-05-21T07:39:41;99204.31;;;21.23;58.08
48027;BME280;50714;49.208;5.364;2023-05-21T07:49:42;99196.97;;;22.12;57.00
48027;BME280;50714;49.208;5.364;2023-05-21T07:59:42;99189.00;;;22.73;55.92
48027;BME280;50714;49.208;5.364;2023-05-21T08:09:43;99185.38;;;23.55;54.06
48027;BME280;50714;49.208;5.364;2023-05-21T08:19:43;99196.59;;;24.52;53.54
48027;BME280;50714;49.208;5.364;2023-05-21T08:29:43;99183.59;;;25.54;50.64
48027;BME280;50714;49.208;5.364;2023-05-21T08:39:44;99179.69;;;26.40;50.09
48027;BME280;50714;49.208;5.364;2023-05-21T08:49:45;99179.50;;;27.95;48.86
48027;BME280;50714;49.208;5.364;2023-05-21T08:59:47;99185.56;;;30.88;43.37
48027;BME280;50714;49.208;5.364;2023-05-21T09:10:00;99189.78;;;33.19;36.98
48027;BME280;50714;49.208;5.364;2023-05-21T09:20:10;99176.00;;;34.31;34.56
48027;BME280;50714;49.208;5.364;2023-05-21T09:30:15;99164.59;;;35.28;36.26
48027;BME280;50714;49.208;5.364;2023-05-21T09:40:21;99161.44;;;35.55;36.01
48027;BME280;50714;49.208;5.364;2023-05-21T09:50:25;99164.19;;;36.35;34.05
48027;BME280;50714;49.208;5.364;2023-05-21T10:00:27;99150.13;;;36.72;33.52
48027;BME280;50714;49.208;5.364;2023-05-21T10:10:29;99142.03;;;36.67;32.95
48027;BME280;50714;49.208;5.364;2023-05-21T10:20:31;99138.22;;;36.85;33.05
48027;BME280;50714;49.208;5.364;2023-05-21T10:30:32;99129.81;;;36.89;32.40
48027;BME280;50714;49.208;5.364;2023-05-21T10:40:34;99124.88;;;36.75;31.52
48027;BME280;50714;49.208;5.364;2023-05-21T11:00:54;99106.53;;;36.51;30.93
48027;BME280;50714;49.208;5.364;2023-05-21T11:10:55;99103.16;;;36.35;30.37
48027;BME280;50714;49.208;5.364;2023-05-21T11:21:09;99094.84;;;34.58;30.15
48027;BME280;50714;49.208;5.364;2023-05-21T11:41:23;99086.22;;;32.52;33.37
48027;BME280;50714;49.208;5.364;2023-05-21T11:51:24;99080.25;;;33.17;33.07
48027;BME280;50714;49.208;5.364;2023-05-21T12:01:25;99083.78;;;33.30;32.31
48027;BME280;50714;49.208;5.364;2023-05-21T12:11:26;99080.28;;;31.98;33.01
48027;BME280;50714;49.208;5.364;2023-05-21T12:21:28;99070.72;;;30.82;34.57
48027;BME280;50714;49.208;5.364;2023-05-21T12:31:29;99071.81;;;30.00;35.66
48027;BME280;50714;49.208;5.364;2023-05-21T12:41:29;99073.75;;;29.58;36.03
48027;BME280;50714;49.208;5.364;2023-05-21T12:51:37;99064.88;;;29.14;37.09
48027;BME280;50714;49.208;5.364;2023-05-21T13:01:39;99065.28;;;28.66;36.79
48027;BME280;50714;49.208;5.364;2023-05-21T13:11:39;99064.03;;;28.46;37.21
48027;BME280;50714;49.208;5.364;2023-05-21T13:21:41;99060.19;;;28.21;38.33
48027;BME280;50714;49.208;5.364;2023-05-21T13:31:42;99064.13;;;27.94;38.34
48027;BME280;50714;49.208;5.364;2023-05-21T13:41:42;99058.13;;;27.66;38.93
48027;BME280;50714;49.208;5.364;2023-05-21T13:51:43;99064.59;;;27.44;39.10
48027;BME280;50714;49.208;5.364;2023-05-21T14:01:43;99051.75;;;27.40;39.51
48027;BME280;50714;49.208;5.364;2023-05-21T14:11:44;99047.47;;;27.42;39.63
48027;BME280;50714;49.208;5.364;2023-05-21T14:21:45;99053.84;;;27.26;40.76
48027;BME280;50714;49.208;5.364;2023-05-21T14:31:45;99045.69;;;27.12;40.36
48027;BME280;50714;49.208;5.364;2023-05-21T14:41:46;99051.19;;;27.03;40.75
48027;BME280;50714;49.208;5.364;2023-05-21T14:51:46;99041.19;;;26.94;41.08
48027;BME280;50714;49.208;5.364;2023-05-21T15:01:47;99033.84;;;26.80;41.24
48027;BME280;50714;49.208;5.364;2023-05-21T15:11:47;99045.53;;;26.69;41.33
48027;BME280;50714;49.208;5.364;2023-05-21T15:21:51;99048.59;;;26.59;41.77
48027;BME280;50714;49.208;5.364;2023-05-21T15:31:51;99054.38;;;26.40;43.34
48027;BME280;50714;49.208;5.364;2023-05-21T15:41:53;99047.66;;;26.10;45.64
48027;BME280;50714;49.208;5.364;2023-05-21T15:51:53;99044.59;;;25.89;46.89
48027;BME280;50714;49.208;5.364;2023-05-21T16:01:56;99037.53;;;25.61;47.89
48027;BME280;50714;49.208;5.364;2023-05-21T16:11:56;99031.47;;;25.36;48.44
48027;BME280;50714;49.208;5.364;2023-05-21T16:21:57;99038.59;;;25.15;49.32
48027;BME280;50714;49.208;5.364;2023-05-21T16:31:57;99044.31;;;24.91;49.68
48027;BME280;50714;49.208;5.364;2023-05-21T16:41:57;99047.31;;;24.67;50.78
48027;BME280;50714;49.208;5.364;2023-05-21T16:51:58;99043.84;;;24.48;51.93
48027;BME280;50714;49.208;5.364;2023-05-21T17:02:00;99051.38;;;24.29;52.71
48027;BME280;50714;49.208;5.364;2023-05-21T17:12:01;99053.75;;;24.17;53.15
48027;BME280;50714;49.208;5.364;2023-05-21T17:22:01;99055.69;;;24.02;53.26
48027;BME280;50714;49.208;5.364;2023-05-21T17:32:02;99057.69;;;23.97;53.78
48027;BME280;50714;49.208;5.364;2023-05-21T17:42:03;99062.66;;;23.81;54.31
48027;BME280;50714;49.208;5.364;2023-05-21T17:52:03;99076.66;;;23.66;55.16
48027;BME280;50714;49.208;5.364;2023-05-21T18:02:04;99091.75;;;23.50;55.24
48027;BME280;50714;49.208;5.364;2023-05-21T18:12:06;99094.56;;;23.26;56.15
48027;BME280;50714;49.208;5.364;2023-05-21T18:22:06;99093.97;;;23.10;56.19
48027;BME280;50714;49.208;5.364;2023-05-21T18:32:07;99102.50;;;22.90;56.85
48027;BME280;50714;49.208;5.364;2023-05-21T18:42:08;99100.66;;;22.80;57.21
48027;BME280;50714;49.208;5.364;2023-05-21T18:52:08;99105.00;;;22.57;57.40
48027;BME280;50714;49.208;5.364;2023-05-21T19:02:08;99096.94;;;22.42;57.92
48027;BME280;50714;49.208;5.364;2023-05-21T19:12:09;99102.59;;;22.22;58.25
48027;BME280;50714;49.208;5.364;2023-05-21T19:22:09;99121.69;;;22.08;58.11
48027;BME280;50714;49.208;5.364;2023-05-21T19:32:14;99125.59;;;21.97;59.12
48027;BME280;50714;49.208;5.364;2023-05-21T19:42:16;99142.75;;;21.84;58.73
48027;BME280;50714;49.208;5.364;2023-05-21T19:52:16;99149.72;;;21.66;58.93
48027;BME280;50714;49.208;5.364;2023-05-21T20:02:17;99151.50;;;21.47;59.18
48027;BME280;50714;49.208;5.364;2023-05-21T20:12:18;99161.50;;;21.22;59.43
48027;BME280;50714;49.208;5.364;2023-05-21T20:22:18;99170.28;;;21.04;59.68
48027;BME280;50714;49.208;5.364;2023-05-21T20:32:19;99176.94;;;20.88;60.11
48027;BME280;50714;49.208;5.364;2023-05-21T20:42:19;99174.50;;;20.76;60.46
48027;BME280;50714;49.208;5.364;2023-05-21T20:52:20;99182.75;;;20.66;60.76
48027;BME280;50714;49.208;5.364;2023-05-21T21:02:21;99171.53;;;20.47;60.78
48027;BME280;50714;49.208;5.364;2023-05-21T21:12:22;99170.13;;;20.09;61.34
48027;BME280;50714;49.208;5.364;2023-05-21T21:22:22;99183.78;;;19.68;61.95
48027;BME280;50714;49.208;5.364;2023-05-21T21:32:24;99188.94;;;19.55;63.01
48027;BME280;50714;49.208;5.364;2023-05-21T21:42:25;99193.59;;;19.54;63.02
48027;BME280;50714;49.208;5.364;2023-05-21T21:52:25;99197.66;;;19.47;63.03
48027;BME280;50714;49.208;5.364;2023-05-21T22:02:28;99200.06;;;19.38;63.88
48027;BME280;50714;49.208;5.364;2023-05-21T22:12:29;99200.38;;;19.36;64.27
48027;BME280;50714;49.208;5.364;2023-05-21T22:22:29;99194.88;;;19.36;64.16
48027;BME280;50714;49.208;5.364;2023-05-21T22:32:29;99190.97;;;19.22;64.83
48027;BME280;50714;49.208;5.364;2023-05-21T22:42:30;99190.13;;;19.12;64.98
48027;BME280;50714;49.208;5.364;2023-05-21T22:52:31;99183.69;;;18.86;65.08
48027;BME280;50714;49.208;5.364;2023-05-21T23:02:33;99180.03;;;18.65;65.67
48027;BME280;50714;49.208;5.364;2023-05-21T23:12:33;99181.63;;;18.61;66.24
48027;BME280;50714;49.208;5.364;2023-05-21T23:22:34;99194.09;;;18.52;66.72
48027;BME280;50714;49.208;5.364;2023-05-21T23:32:34;99188.84;;;18.45;66.22
48027;BME280;50714;49.208;5.364;2023-05-21T23:42:35;99186.28;;;18.28;66.68
48027;BME280;50714;49.208;5.364;2023-05-21T23:52:35;99191.06;;;18.11;66.80
